Schneifelwetter: Wetterstation Hallschlag, 537 m . NN
Wetterdaten: Samstag, 22.09.2012
Datum Zeit Temp. A. Feuchte A. Luftdruck Regen Wind Richtung Richtung Sonnenschein T Regen Taupunkt Windchill
22.09.2012 00:08 8,6 C 80 % 1010 hPa 0,0 l/m 0,4 km/h (0 Bft) W-SW 255 0 min 0 min 5,3 C 8,6 C
22.09.2012 00:23 8,2 C 80 % 1010 hPa 0,0 l/m 10,3 km/h (2 Bft) W-SW 255 0 min 0 min 5,0 C 5,4 C
22.09.2012 00:38 7,7 C 81 % 1010 hPa 0,0 l/m 0,1 km/h (0 Bft) W-SW 255 0 min 0 min 4,7 C 7,7 C
22.09.2012 00:53 7,3 C 81 % 1010 hPa 0,0 l/m 6,7 km/h (2 Bft) W-SW 255 0 min 0 min 4,3 C 7,1 C
22.09.2012 01:08 6,8 C 82 % 1010 hPa 0,0 l/m 5,8 km/h (2 Bft) W-SW 255 0 min 0 min 3,9 C 6,8 C
22.09.2012 01:23 6,7 C 84 % 1010 hPa 0,0 l/m 8,1 km/h (2 Bft) W-SW 255 0 min 0 min 4,2 C 5,3 C
22.09.2012 01:38 7,2 C 87 % 1010 hPa 0,0 l/m 14,1 km/h (3 Bft) W22.5 270 0 min 0 min 5,2 C 2,2 C
22.09.2012 01:53 7,4 C 88 % 1010 hPa 0,0 l/m 11,7 km/h (2 Bft) W-SW 255 0 min 0 min 5,5 C 3,7 C
22.09.2012 02:08 7,3 C 88 % 1010 hPa 0,0 l/m 9,0 km/h (2 Bft) W 265 0 min 0 min 5,4 C 5,3 C
22.09.2012 02:23 7,2 C 88 % 1010 hPa 0,0 l/m 9,5 km/h (2 Bft) W 265 0 min 0 min 5,3 C 4,8 C
22.09.2012 02:38 7,1 C 89 % 1010 hPa 0,0 l/m 11,1 km/h (2 Bft) W 265 0 min 0 min 5,4 C 3,7 C
22.09.2012 02:53 7,1 C 90 % 1010 hPa 0,0 l/m 7,8 km/h (2 Bft) W 265 0 min 0 min 5,6 C 6,0 C
22.09.2012 03:08 7,2 C 90 % 1010 hPa 0,0 l/m 1,9 km/h (1 Bft) W 265 0 min 0 min 5,7 C 7,2 C
22.09.2012 03:23 7,3 C 90 % 1010 hPa 0,0 l/m 0,9 km/h (0 Bft) W 265 0 min 0 min 5,8 C 7,3 C
22.09.2012 03:38 7,1 C 89 % 1010 hPa 0,0 l/m 0,0 km/h (0 Bft) W 265 0 min 0 min 5,4 C 7,1 C
22.09.2012 03:53 6,3 C 88 % 1010 hPa 0,0 l/m 0,0 km/h (0 Bft) W 265 0 min 0 min 4,5 C 6,3 C
22.09.2012 04:08 5,5 C 89 % 1010 hPa 0,0 l/m 0,0 km/h (0 Bft) W 265 0 min 0 min 3,8 C 5,5 C
22.09.2012 04:23 4,8 C 89 % 1010 hPa 0,0 l/m 0,0 km/h (0 Bft) W 265 0 min 0 min 3,1 C 4,8 C
22.09.2012 04:38 4,5 C 90 % 1011 hPa 0,0 l/m 0,4 km/h (0 Bft) W 265 0 min 0 min 3,0 C 4,5 C
22.09.2012 04:53 4,2 C 90 % 1011 hPa 0,0 l/m 6,0 km/h (2 Bft) W 265 0 min 0 min 2,7 C 4,2 C
22.09.2012 05:08 4,2 C 91 % 1011 hPa 0,0 l/m 5,7 km/h (1 Bft) W 265 0 min 0 min 2,9 C 4,2 C
22.09.2012 05:23 4,7 C 92 % 1011 hPa 0,0 l/m 0,7 km/h (0 Bft) W 265 0 min 0 min 3,5 C 4,7 C
22.09.2012 05:38 5,4 C 93 % 1011 hPa 0,0 l/m 10,8 km/h (2 Bft) W 265 0 min 0 min 4,4 C 2,0 C
22.09.2012 05:53 5,8 C 93 % 1011 hPa 0,0 l/m 8,8 km/h (2 Bft) W 265 0 min 0 min 4,8 C 3,8 C
22.09.2012 06:08 5,6 C 92 % 1011 hPa 0,0 l/m 4,8 km/h (1 Bft) W 265 0 min 0 min 4,4 C 5,6 C
22.09.2012 06:23 5,4 C 93 % 1011 hPa 0,0 l/m 0,0 km/h (0 Bft) W 265 0 min 0 min 4,4 C 5,4 C
22.09.2012 06:38 5,7 C 94 % 1011 hPa 0,0 l/m 9,4 km/h (2 Bft) W 265 0 min 0 min 4,8 C 3,3 C
22.09.2012 06:53 5,7 C 94 % 1011 hPa 0,0 l/m 11,0 km/h (2 Bft) W 265 0 min 0 min 4,8 C 2,2 C
22.09.2012 07:08 5,4 C 93 % 1012 hPa 0,0 l/m 10,5 km/h (2 Bft) SW 235 0 min 0 min 4,4 C 2,2 C
22.09.2012 07:24 4,9 C 93 % 1012 hPa 0,0 l/m 5,7 km/h (1 Bft) SW 235 0 min 0 min 3,9 C 4,9 C
22.09.2012 07:39 4,8 C 93 % 1012 hPa 0,0 l/m 0,4 km/h (0 Bft) SW 235 0 min 0 min 3,8 C 4,8 C
22.09.2012 07:54 5,2 C 94 % 1012 hPa 0,0 l/m 8,1 km/h (2 Bft) SW 235 0 min 0 min 4,3 C 3,7 C
22.09.2012 08:09 5,6 C 94 % 1012 hPa 0,3 l/m 9,2 km/h (2 Bft) SW 235 0 min 15 min 4,7 C 3,3 C
22.09.2012 08:24 5,8 C 94 % 1012 hPa 0,0 l/m 11,2 km/h (2 Bft) SW 235 0 min 0 min 4,9 C 2,2 C
22.09.2012 08:39 6,1 C 94 % 1013 hPa 0,0 l/m 9,6 km/h (2 Bft) SW 235 0 min 0 min 5,2 C 3,6 C
22.09.2012 08:54 6,4 C 93 % 1013 hPa 0,0 l/m 10,7 km/h (2 Bft) W-SW 240 0 min 0 min 5,4 C 3,2 C
22.09.2012 09:09 6,6 C 93 % 1013 hPa 0,0 l/m 13,5 km/h (3 Bft) W-SW22.5 250 0 min 0 min 5,6 C 1,8 C
22.09.2012 09:24 6,8 C 93 % 1013 hPa 0,0 l/m 10,0 km/h (2 Bft) W-SW 250 0 min 0 min 5,7 C 4,1 C
22.09.2012 09:44 6,8 C 93 % 1013 hPa 0,0 l/m 10,5 km/h (2 Bft) W-SW 250 0 min 0 min 5,7 C 3,7 C
22.09.2012 09:59 7,2 C 93 % 1014 hPa 0,0 l/m 6,7 km/h (2 Bft) W-SW 250 0 min 0 min 6,1 C 7,0 C
22.09.2012 10:14 7,5 C 93 % 1014 hPa 0,0 l/m 0,0 km/h (0 Bft) W-SW 250 0 min 0 min 6,4 C 7,5 C
22.09.2012 10:30 8,4 C 93 % 1014 hPa 0,0 l/m 2,4 km/h (1 Bft) W-SW 250 0 min 0 min 7,3 C 8,4 C
22.09.2012 10:44 8,7 C 91 % 1014 hPa 0,0 l/m 10,0 km/h (2 Bft) W45 280 0 min 0 min 7,3 C 6,2 C
22.09.2012 10:59 9,2 C 88 % 1014 hPa 0,0 l/m 13,8 km/h (3 Bft) NW45 310 0 min 0 min 7,3 C 4,7 C
22.09.2012 11:14 9,6 C 86 % 1015 hPa 0,0 l/m 12,3 km/h (3 Bft) N45 350 0 min 0 min 7,4 C 5,9 C
22.09.2012 11:29 10,7 C 83 % 1015 hPa 0,0 l/m 14,8 km/h (3 Bft) W22.5 275 0 min 0 min 7,9 C 6,1 C
22.09.2012 11:44 10,8 C 79 % 1015 hPa 0,0 l/m 15,7 km/h (3 Bft) W-NW67.5 300 0 min 0 min 7,3 C 5,8 C
22.09.2012 12:00 11,2 C 76 % 1015 hPa 0,0 l/m 16,9 km/h (3 Bft) N67.5 355 0 min 0 min 7,1 C 5,9 C
22.09.2012 12:14 11,5 C 75 % 1015 hPa 0,0 l/m 17,3 km/h (3 Bft) NW67.5 325 0 min 0 min 7,2 C 6,1 C
22.09.2012 12:29 11,8 C 74 % 1015 hPa 0,0 l/m 17,6 km/h (3 Bft) W-NW45 295 0 min 0 min 7,3 C 6,4 C
22.09.2012 12:44 11,7 C 72 % 1015 hPa 0,0 l/m 14,5 km/h (3 Bft) N-NW45 330 0 min 0 min 6,8 C 7,4 C
22.09.2012 12:59 11,2 C 72 % 1015 hPa 0,0 l/m 22,1 km/h (4 Bft) N67.5 350 0 min 0 min 6,3 C 4,2 C
22.09.2012 13:15 11,8 C 69 % 1015 hPa 0,0 l/m 19,1 km/h (3 Bft) NW67.5 320 0 min 0 min 6,3 C 5,9 C
22.09.2012 13:30 11,1 C 71 % 1015 hPa 0,0 l/m 20,6 km/h (4 Bft) N67.5 360 0 min 0 min 6,0 C 4,5 C
22.09.2012 13:44 12,2 C 70 % 1016 hPa 0,0 l/m 21,0 km/h (4 Bft) W-NW67.5 300 0 min 0 min 6,9 C 5,8 C
22.09.2012 13:59 12,0 C 68 % 1016 hPa 0,0 l/m 14,5 km/h (3 Bft) W45 280 0 min 0 min 6,3 C 7,8 C
22.09.2012 14:14 12,3 C 66 % 1016 hPa 0,0 l/m 16,8 km/h (3 Bft) W45 280 0 min 0 min 6,1 C 7,3 C
22.09.2012 14:29 12,6 C 61 % 1016 hPa 0,0 l/m 26,8 km/h (4 Bft) NW67.5 315 0 min 0 min 5,3 C 5,0 C
22.09.2012 14:45 11,7 C 66 % 1016 hPa 0,0 l/m 24,2 km/h (4 Bft) N67.5 5 0 min 0 min 5,6 C 4,3 C
22.09.2012 15:00 11,8 C 66 % 1016 hPa 0,0 l/m 19,3 km/h (3 Bft) N67.5 360 0 min 0 min 5,7 C 5,8 C
22.09.2012 15:14 11,2 C 64 % 1016 hPa 0,0 l/m 15,1 km/h (3 Bft) N-NW67.5 335 0 min 0 min 4,6 C 6,5 C
22.09.2012 15:29 11,6 C 61 % 1016 hPa 0,0 l/m 18,9 km/h (3 Bft) N67.5 5 0 min 0 min 4,3 C 5,7 C
22.09.2012 15:44 11,5 C 61 % 1016 hPa 0,0 l/m 20,5 km/h (4 Bft) N-NO45 25 0 min 0 min 4,2 C 5,1 C
22.09.2012 15:59 11,7 C 61 % 1016 hPa 0,0 l/m 17,8 km/h (3 Bft) N45 360 0 min 0 min 4,4 C 6,2 C
22.09.2012 16:15 11,8 C 61 % 1016 hPa 0,0 l/m 18,0 km/h (3 Bft) NW67.5 320 0 min 0 min 4,5 C 6,2 C
22.09.2012 16:30 12,4 C 60 % 1016 hPa 0,0 l/m 14,9 km/h (3 Bft) N-NW45 345 0 min 0 min 4,9 C 8,1 C
22.09.2012 16:44 12,5 C 59 % 1016 hPa 0,0 l/m 20,2 km/h (4 Bft) N-NO67.5 15 0 min 0 min 4,7 C 6,5 C
22.09.2012 16:59 11,5 C 61 % 1016 hPa 0,0 l/m 15,6 km/h (3 Bft) N22.5 360 0 min 0 min 4,2 C 6,7 C
22.09.2012 17:14 11,3 C 60 % 1016 hPa 0,0 l/m 12,3 km/h (3 Bft) N-NO22.5 15 0 min 0 min 3,8 C 7,9 C
22.09.2012 17:29 11,6 C 59 % 1016 hPa 0,0 l/m 16,1 km/h (3 Bft) N22.5 350 0 min 0 min 3,9 C 6,7 C
22.09.2012 17:45 11,6 C 60 % 1017 hPa 0,0 l/m 14,1 km/h (3 Bft) N-NW45 335 0 min 0 min 4,1 C 7,4 C
22.09.2012 18:00 11,6 C 61 % 1017 hPa 0,0 l/m 11,8 km/h (2 Bft) NW45 320 0 min 0 min 4,3 C 8,5 C
22.09.2012 18:14 11,5 C 61 % 1017 hPa 0,0 l/m 13,6 km/h (3 Bft) N-NW45 330 0 min 0 min 4,2 C 7,5 C
22.09.2012 18:29 11,0 C 62 % 1017 hPa 0,0 l/m 11,0 km/h (2 Bft) NW45 325 0 min 0 min 4,0 C 8,2 C
22.09.2012 18:44 10,7 C 63 % 1017 hPa 0,0 l/m 13,8 km/h (3 Bft) N-NO22.5 25 0 min 0 min 3,9 C 6,5 C
22.09.2012 18:59 10,0 C 65 % 1017 hPa 0,0 l/m 13,1 km/h (3 Bft) N22.5 355 0 min 0 min 3,7 C 6,0 C
22.09.2012 19:15 9,2 C 66 % 1017 hPa 0,0 l/m 3,1 km/h (1 Bft) N 355 0 min 0 min 3,2 C 9,2 C
22.09.2012 19:14 9,2 C 66 % 1017 hPa 0,0 l/m 3,1 km/h (1 Bft) N 355 0 min 0 min 3,2 C 9,2 C
22.09.2012 19:29 8,3 C 68 % 1017 hPa 0,0 l/m 0,1 km/h (0 Bft) N 355 0 min 0 min 2,7 C 8,3 C
22.09.2012 19:44 7,2 C 69 % 1017 hPa 0,0 l/m 0,0 km/h (0 Bft) N 355 0 min 0 min 1,9 C 7,2 C
22.09.2012 19:59 6,4 C 72 % 1017 hPa 0,0 l/m 0,0 km/h (0 Bft) N 355 0 min 0 min 1,7 C 6,4 C
22.09.2012 20:14 5,6 C 73 % 1017 hPa 0,0 l/m 2,4 km/h (1 Bft) N 355 0 min 0 min 1,2 C 5,6 C
22.09.2012 20:30 4,7 C 75 % 1018 hPa 0,0 l/m 0,0 km/h (0 Bft) N 355 0 min 0 min 0,7 C 4,7 C
22.09.2012 20:44 4,0 C 76 % 1018 hPa 0,0 l/m 0,0 km/h (0 Bft) N 355 0 min 0 min 0,2 C 4,0 C
22.09.2012 20:59 3,5 C 78 % 1018 hPa 0,0 l/m 0,0 km/h (0 Bft) N 355 0 min 0 min 0,0 C 3,5 C
22.09.2012 21:14 3,0 C 78 % 1018 hPa 0,0 l/m 0,0 km/h (0 Bft) N 355 0 min 0 min -0,5 C 3,0 C
22.09.2012 21:29 2,7 C 80 % 1018 hPa 0,0 l/m 0,0 km/h (0 Bft) N 355 0 min 0 min -0,4 C 2,7 C
22.09.2012 21:44 2,4 C 80 % 1018 hPa 0,0 l/m 0,0 km/h (0 Bft) N 355 0 min 0 min -0,7 C 2,4 C
22.09.2012 22:00 2,1 C 81 % 1018 hPa 0,0 l/m 0,0 km/h (0 Bft) N 355 0 min 0 min -0,8 C 2,1 C
22.09.2012 22:14 1,7 C 81 % 1018 hPa 0,0 l/m 0,0 km/h (0 Bft) N 355 0 min 0 min -1,2 C 1,7 C
22.09.2012 22:29 1,5 C 82 % 1018 hPa 0,0 l/m 0,0 km/h (0 Bft) N 355 0 min 0 min -1,2 C 1,5 C
22.09.2012 22:44 1,2 C 83 % 1018 hPa 0,0 l/m 0,0 km/h (0 Bft) N 355 0 min 0 min -1,4 C 1,2 C
22.09.2012 22:59 1,1 C 83 % 1018 hPa 0,0 l/m 0,0 km/h (0 Bft) N 355 0 min 0 min -1,5 C 1,1 C
22.09.2012 23:14 0,7 C 84 % 1018 hPa 0,0 l/m 0,0 km/h (0 Bft) N 355 0 min 0 min -1,7 C 0,7 C
22.09.2012 23:30 0,6 C 84 % 1018 hPa 0,0 l/m 0,0 km/h (0 Bft) N 355 0 min 0 min -1,8 C 0,6 C
22.09.2012 23:44 0,4 C 85 % 1018 hPa 0,0 l/m 0,0 km/h (0 Bft) N 355 0 min 0 min -1,8 C 0,4 C
22.09.2012 23:59 0,3 C 85 % 1018 hPa 0,0 l/m 0,0 km/h (0 Bft) N 355 0 min 0 min -1,9 C 0,3 C
_ Min-Zeit 23:59 16:44 00:08 - 03:38 - - - - 23:59 23:59
Minimum _ 0,3 C 59 % 1010 hPa - 0,0 km/h (0 Bft) - - - - -1,9 C 0,3 C
_ Max-Zeit 14:29 06:38 20:30 08:09 14:29 - - 00:08 08:09 11:29 19:15
Maximum _ 12,6 C 94 % 1018 hPa 0,3 l/m 26,8 km/h
NW (4 Bft)
- - 0 min 15 min 7,9 C 9,2 C
Durchschnitt _ 7,5 C 80 % 1014 hPa #0,3 l/m 8,7 km/h (2 Bft) W - #0 min. #15 min. 4,0 C 5,0 C